createdAt,value
2022-09-12T00:07:08.822Z,100311.84
2022-09-12T00:17:12.639Z,100312.44
2022-09-12T00:27:15.645Z,100313.16
2022-09-12T00:37:18.680Z,100322.53
2022-09-12T00:47:31.734Z,100310.06
2022-09-12T00:57:49.854Z,100316.78
2022-09-12T01:07:54.788Z,100317.75
2022-09-12T01:18:28.702Z,100320.75
2022-09-12T01:28:50.539Z,100325.19
2022-09-12T01:39:11.177Z,100321.69
2022-09-12T01:49:25.715Z,100324.59
2022-09-12T01:59:39.423Z,100317.63
2022-09-12T02:10:20.203Z,100307.50
2022-09-12T02:20:46.983Z,100318.78
2022-09-12T02:30:56.214Z,100327.63
2022-09-12T02:40:59.306Z,100314.63
2022-09-12T02:51:02.603Z,100317.84
2022-09-12T03:01:51.336Z,100327.63
2022-09-12T03:12:08.829Z,100339.56
2022-09-12T03:22:23.894Z,100339.56
2022-09-12T03:32:49.627Z,100348.66
2022-09-12T03:42:52.585Z,100360.38
2022-09-12T03:52:55.529Z,100364.81
2022-09-12T04:02:58.657Z,100373.75
2022-09-12T04:13:01.690Z,100364.81
2022-09-12T04:23:04.620Z,100373.06
2022-09-12T04:33:08.208Z,100379.22
2022-09-12T04:43:14.418Z,100379.00
2022-09-12T04:53:17.652Z,100381.09
2022-09-12T05:03:20.506Z,100396.63
2022-09-12T05:13:23.547Z,100411.59
2022-09-12T05:23:27.828Z,100419.34
2022-09-12T05:33:32.177Z,100431.84
2022-09-12T05:43:35.822Z,100432.56
2022-09-12T05:53:40.516Z,100440.03
2022-09-12T06:03:47.702Z,100430.13
2022-09-12T06:13:51.202Z,100424.47
2022-09-12T06:23:55.343Z,100430.88
2022-09-12T06:34:01.478Z,100453.47
2022-09-12T06:44:05.060Z,100458.34
2022-09-12T06:54:08.084Z,100454.25
2022-09-12T07:04:11.585Z,100465.03
2022-09-12T07:14:15.395Z,100464.91
2022-09-12T07:24:18.346Z,100472.81
2022-09-12T07:34:21.288Z,100459.78
2022-09-12T07:44:25.331Z,100460.94
2022-09-12T07:54:28.303Z,100454.41
2022-09-12T08:04:31.162Z,100461.22
2022-09-12T08:14:34.104Z,100457.03
2022-09-12T08:24:39.243Z,100459.12
2022-09-12T08:34:42.176Z,100454.69
2022-09-12T08:44:56.665Z,100453.53
2022-09-12T08:55:01.882Z,100453.78
2022-09-12T09:05:17.995Z,100437.78
2022-09-12T09:16:03.396Z,100430.50
2022-09-12T09:26:14.766Z,100432.31
2022-09-12T09:36:25.263Z,100427.13
2022-09-12T09:46:29.141Z,100433.69
2022-09-12T09:56:40.675Z,100434.94
2022-09-12T10:06:44.445Z,100424.44
2022-09-12T10:16:55.347Z,100434.59
2022-09-12T10:27:13.638Z,100434.47
2022-09-12T10:37:27.359Z,100436.59
2022-09-12T10:47:32.778Z,100428.47
2022-09-12T10:58:05.290Z,100428.16
2022-09-12T11:08:38.401Z,100432.16
2022-09-12T11:19:14.916Z,100426.06
2022-09-12T11:29:26.331Z,100418.56
2022-09-12T11:39:45.982Z,100415.72
2022-09-12T11:49:54.559Z,100409.63
2022-09-12T12:00:15.320Z,100421.06
2022-09-12T12:10:31.106Z,100417.44
2022-09-12T12:20:35.243Z,100401.50
2022-09-12T12:30:38.221Z,100408.72
2022-09-12T12:40:41.210Z,100392.87
2022-09-12T12:50:45.636Z,100388.59
2022-09-12T13:01:07.654Z,100377.59
2022-09-12T13:11:16.881Z,100371.09
2022-09-12T13:21:21.714Z,100365.09
2022-09-12T13:31:30.745Z,100353.22
2022-09-12T13:41:53.303Z,100360.25
2022-09-12T13:52:03.321Z,100340.69
2022-09-12T14:02:20.763Z,100337.12
2022-09-12T14:12:27.277Z,100332.81
2022-09-12T14:22:31.082Z,100328.81
2022-09-12T14:32:34.185Z,100335.19
2022-09-12T14:42:46.891Z,100333.19
2022-09-12T14:53:08.027Z,100345.41
2022-09-12T15:03:34.732Z,100348.25
2022-09-12T15:13:42.099Z,100355.91
2022-09-12T15:23:52.532Z,100365.44
2022-09-12T15:33:57.243Z,100373.06
2022-09-12T15:44:19.402Z,100379.59
2022-09-12T15:54:32.281Z,100389.97
2022-09-12T16:04:35.856Z,100397.09
2022-09-12T16:14:41.309Z,100407.03
2022-09-12T16:24:52.329Z,100418.44
2022-09-12T16:34:55.401Z,100429.69
2022-09-12T16:44:58.657Z,100433.03
2022-09-12T16:55:01.648Z,100430.56
2022-09-12T17:05:09.685Z,100446.69
2022-09-12T17:15:15.231Z,100430.59
2022-09-12T17:25:18.256Z,100447.94
2022-09-12T17:35:21.915Z,100440.41
2022-09-12T17:45:25.606Z,100468.97
2022-09-12T17:55:32.178Z,100464.06
2022-09-12T18:05:35.588Z,100482.22
2022-09-12T18:15:39.073Z,100501.87
2022-09-12T18:25:43.812Z,100509.41
2022-09-12T18:35:50.538Z,100523.22
2022-09-12T18:46:00.003Z,100528.56
2022-09-12T18:56:09.194Z,100539.00
2022-09-12T19:06:18.224Z,100535.69
2022-09-12T19:16:25.014Z,100543.31
2022-09-12T19:26:29.077Z,100546.34
2022-09-12T19:36:44.901Z,100536.94
2022-09-12T19:46:49.157Z,100537.59
2022-09-12T19:56:52.865Z,100549.41
2022-09-12T20:06:57.097Z,100551.44
2022-09-12T20:17:00.097Z,100550.38
2022-09-12T20:27:03.401Z,100542.13
2022-09-12T20:37:06.486Z,100557.25
2022-09-12T20:47:09.545Z,100548.44
2022-09-12T20:57:12.654Z,100549.56
2022-09-12T21:07:15.696Z,100557.72
2022-09-12T21:17:18.905Z,100568.41
2022-09-12T21:27:21.994Z,100560.31
2022-09-12T21:37:25.209Z,100551.75
2022-09-12T21:47:28.539Z,100535.66
2022-09-12T21:57:41.337Z,100538.91
2022-09-12T22:07:45.388Z,100522.00
2022-09-12T22:17:48.418Z,100521.81
2022-09-12T22:27:52.276Z,100517.53
2022-09-12T22:37:55.308Z,100513.31
2022-09-12T22:48:00.801Z,100533.97
2022-09-12T22:58:04.436Z,100527.25
2022-09-12T23:08:07.423Z,100521.97
2022-09-12T23:18:10.380Z,100519.69
2022-09-12T23:28:14.849Z,100512.69
2022-09-12T23:38:17.857Z,100512.38
2022-09-12T23:48:20.888Z,100507.75
2022-09-12T23:58:24.323Z,100504.38
